Time;durP1;ratioP1;P1;durP2;ratioP2;P2;SDS_P1;SDS_P2;PMS_P1;PMS_P2;Temp;Humidity;BMP_temperature;BMP_pressure;BME280_temperature;BME280_humidity;BME280_pressure;Samples;Min_cycle;Max_cycle;Signal;HPM_P1;HPM_P2
2023/03/02 00:00:14;;;;;;;54.97;10.87;;;12.40;50.20;;;;;;5045984;28;20211;-86
2023/03/02 00:02:43;;;;;;;37.77;9.23;;;12.50;50.30;;;;;;5045732;28;20913;-86
2023/03/02 00:05:13;;;;;;;49.83;9.87;;;12.40;50.20;;;;;;5046341;28;20205;-86
2023/03/02 00:07:40;;;;;;;39.33;9.63;;;12.40;50.20;;;;;;5048192;28;20227;-87
2023/03/02 00:10:07;;;;;;;45.23;9.87;;;12.40;50.20;;;;;;5048365;28;20204;-87
2023/03/02 00:12:35;;;;;;;43.50;10.00;;;12.40;50.20;;;;;;5047377;28;20565;-87
2023/03/02 00:15:05;;;;;;;41.63;9.17;;;12.40;50.20;;;;;;5046861;28;20213;-87
2023/03/02 00:17:32;;;;;;;58.73;10.37;;;12.40;50.20;;;;;;5047361;28;20205;-86
2023/03/02 00:20:09;;;;;;;34.90;9.07;;;12.40;50.20;;;;;;5053310;28;20207;-86
2023/03/02 00:22:36;;;;;;;46.77;9.90;;;12.40;50.20;;;;;;5045173;28;20203;-86
2023/03/02 00:25:03;;;;;;;40.40;8.80;;;12.30;50.10;;;;;;5046518;28;20217;-87
2023/03/02 00:27:30;;;;;;;45.87;9.23;;;12.30;50.10;;;;;;5045846;28;20229;-86
2023/03/02 00:29:57;;;;;;;68.00;12.10;;;12.40;50.20;;;;;;5045967;28;20206;-86
2023/03/02 00:32:24;;;;;;;42.57;9.30;;;12.30;50.20;;;;;;5045581;28;20212;-87
2023/03/02 00:34:51;;;;;;;68.10;10.50;;;12.40;50.20;;;;;;5045546;28;20237;-87
2023/03/02 00:37:19;;;;;;;42.87;9.63;;;12.30;50.20;;;;;;5046795;28;20206;-89
2023/03/02 00:39:46;;;;;;;32.63;8.53;;;12.30;50.10;;;;;;5047552;28;20937;-86
2023/03/02 00:42:13;;;;;;;34.17;8.77;;;12.30;50.20;;;;;;5047043;28;20660;-86
2023/03/02 00:44:40;;;;;;;41.63;8.87;;;12.40;50.20;;;;;;5046808;28;20208;-86
2023/03/02 00:47:07;;;;;;;32.60;8.17;;;12.30;50.20;;;;;;5050708;28;20205;-86
2023/03/02 00:49:35;;;;;;;55.67;9.87;;;12.40;50.20;;;;;;5049618;28;20939;-87
2023/03/02 00:52:02;;;;;;;35.87;8.67;;;12.30;50.20;;;;;;5050878;28;20198;-87
2023/03/02 00:54:30;;;;;;;39.47;9.03;;;12.30;50.20;;;;;;5049852;28;20221;-86
2023/03/02 00:56:57;;;;;;;41.50;9.07;;;12.20;50.10;;;;;;5049911;28;20210;-87
2023/03/02 00:59:27;;;;;;;38.47;8.67;;;12.30;50.20;;;;;;5050157;28;20217;-88
2023/03/02 01:01:56;;;;;;;30.37;8.73;;;12.30;50.20;;;;;;5051365;28;20210;-86
2023/03/02 01:04:28;;;;;;;40.93;9.13;;;12.20;50.10;;;;;;5050503;28;20658;-87
2023/03/02 01:06:55;;;;;;;42.07;9.37;;;12.30;50.20;;;;;;5052845;28;20577;-88
2023/03/02 01:09:22;;;;;;;37.23;8.70;;;12.30;50.20;;;;;;5050913;28;20604;-87
2023/03/02 01:11:50;;;;;;;33.33;8.57;;;12.20;50.10;;;;;;5051474;28;20195;-87
2023/03/02 01:14:17;;;;;;;29.47;8.20;;;12.20;50.10;;;;;;5051129;28;20211;-86
2023/03/02 01:16:46;;;;;;;41.07;9.37;;;12.20;50.20;;;;;;5050851;28;20195;-87
2023/03/02 01:19:15;;;;;;;38.90;8.93;;;12.20;50.10;;;;;;5051686;28;20657;-87
2023/03/02 01:21:43;;;;;;;44.60;8.77;;;12.20;50.20;;;;;;5050410;28;20203;-87
2023/03/02 01:24:11;;;;;;;34.97;8.20;;;12.20;50.10;;;;;;5050944;28;20227;-87
2023/03/02 01:26:38;;;;;;;54.73;10.00;;;12.20;50.10;;;;;;5048113;28;20210;-86
2023/03/02 01:29:06;;;;;;;34.97;8.80;;;12.20;50.20;;;;;;5050531;28;20231;-87
2023/03/02 01:31:33;;;;;;;38.87;8.70;;;12.20;50.10;;;;;;5050636;28;20197;-87
2023/03/02 01:34:00;;;;;;;38.43;8.90;;;12.20;50.20;;;;;;5050815;28;20213;-87
2023/03/02 01:36:27;;;;;;;49.03;9.57;;;12.10;50.10;;;;;;5050147;28;20213;-85
2023/03/02 01:38:54;;;;;;;43.77;9.20;;;12.20;50.20;;;;;;5054975;28;20294;-87
2023/03/02 01:41:20;;;;;;;41.30;8.80;;;12.10;50.10;;;;;;5052028;28;20202;-87
2023/03/02 01:43:48;;;;;;;45.50;9.23;;;12.10;50.10;;;;;;5049866;28;20206;-87
2023/03/02 01:46:19;;;;;;;35.10;8.13;;;12.10;50.10;;;;;;5049686;28;20202;-87
2023/03/02 01:48:52;;;;;;;51.67;9.77;;;12.10;50.10;;;;;;5047097;28;20232;-89
2023/03/02 01:51:23;;;;;;;41.47;8.63;;;12.10;50.10;;;;;;5050917;28;20213;-89
2023/03/02 01:53:53;;;;;;;38.93;8.60;;;12.10;50.10;;;;;;5048984;28;20221;-90
2023/03/02 01:56:23;;;;;;;36.80;8.30;;;12.10;50.10;;;;;;5046196;28;20566;-87
2023/03/02 01:58:54;;;;;;;43.10;9.37;;;12.10;50.10;;;;;;5050319;28;20203;-86
2023/03/02 02:01:22;;;;;;;38.87;8.17;;;12.10;50.10;;;;;;5050406;28;20207;-88
2023/03/02 02:03:51;;;;;;;52.67;9.63;;;12.10;50.00;;;;;;5047168;28;20204;-89
2023/03/02 02:06:23;;;;;;;54.67;10.07;;;12.00;50.00;;;;;;5049762;28;20195;-86
2023/03/02 02:08:50;;;;;;;62.37;10.60;;;12.00;50.00;;;;;;5046641;28;20226;-86
2023/03/02 02:11:18;;;;;;;36.80;8.87;;;12.10;50.10;;;;;;5049834;28;20199;-87
2023/03/02 02:13:46;;;;;;;39.93;8.57;;;12.00;50.00;;;;;;5050037;28;20212;-89
2023/03/02 02:16:13;;;;;;;60.33;10.33;;;12.00;50.00;;;;;;5047338;28;20203;-86
2023/03/02 02:18:46;;;;;;;45.40;9.17;;;12.00;50.00;;;;;;5048585;28;20210;-86
2023/03/02 02:21:13;;;;;;;54.40;9.57;;;12.00;50.00;;;;;;5048595;28;20201;-87
2023/03/02 02:23:46;;;;;;;44.23;8.97;;;12.00;50.00;;;;;;5047693;28;20706;-86
2023/03/02 02:26:20;;;;;;;28.77;8.53;;;12.00;50.00;;;;;;5048923;28;20232;-88
2023/03/02 02:28:56;;;;;;;34.43;8.57;;;12.00;50.00;;;;;;5047861;28;20229;-87
2023/03/02 02:31:27;;;;;;;44.97;9.70;;;12.00;50.00;;;;;;5048134;28;20228;-87
2023/03/02 02:33:58;;;;;;;39.50;9.13;;;11.90;49.90;;;;;;5046032;28;20677;-87
2023/03/02 02:36:31;;;;;;;42.27;9.33;;;12.00;50.00;;;;;;5047023;28;20202;-86
2023/03/02 02:39:02;;;;;;;32.93;8.53;;;12.00;50.00;;;;;;5048026;28;20208;-88
2023/03/02 02:41:34;;;;;;;35.67;8.50;;;12.00;50.00;;;;;;5048550;28;20672;-87
2023/03/02 02:44:01;;;;;;;49.80;9.83;;;11.90;49.90;;;;;;5046763;28;20210;-87
2023/03/02 02:46:28;;;;;;;37.53;8.97;;;12.00;50.00;;;;;;5046735;28;20205;-87
2023/03/02 02:48:55;;;;;;;39.70;9.13;;;11.90;49.90;;;;;;5047949;28;20250;-87
2023/03/02 02:51:26;;;;;;;44.53;8.77;;;11.90;50.00;;;;;;5048043;28;20198;-87
2023/03/02 02:53:58;;;;;;;41.23;9.00;;;11.90;49.90;;;;;;5048908;28;20214;-89
2023/03/02 02:56:27;;;;;;;37.17;8.57;;;11.90;49.90;;;;;;5049096;28;20205;-89
2023/03/02 02:58:59;;;;;;;33.03;8.67;;;11.90;50.00;;;;;;5048736;28;20209;-89
2023/03/02 03:01:26;;;;;;;70.13;10.87;;;11.90;50.00;;;;;;5047127;28;20665;-87
2023/03/02 03:03:56;;;;;;;38.37;9.33;;;11.80;49.90;;;;;;5047955;28;20209;-89
2023/03/02 03:06:25;;;;;;;37.53;8.43;;;11.90;50.00;;;;;;5028751;28;20686;-87
2023/03/02 03:09:03;;;;;;;38.03;8.57;;;11.90;50.00;;;;;;5039171;28;20921;-86
2023/03/02 03:11:33;;;;;;;40.23;8.73;;;11.90;49.90;;;;;;5047606;28;20207;-87
2023/03/02 03:14:09;;;;;;;34.40;8.63;;;11.80;49.90;;;;;;5047000;28;20201;-87
2023/03/02 03:16:38;;;;;;;37.80;9.23;;;11.80;50.50;;;;;;5047638;28;20714;-87
2023/03/02 03:19:17;;;;;;;39.60;9.13;;;11.80;49.90;;;;;;5044553;28;20207;-88
2023/03/02 03:21:44;;;;;;;47.13;9.53;;;11.80;49.90;;;;;;5047532;28;20198;-89
2023/03/02 03:24:11;;;;;;;39.03;8.73;;;11.80;49.90;;;;;;5047336;28;20234;-87
2023/03/02 03:26:38;;;;;;;51.10;10.23;;;11.80;49.90;;;;;;5046773;28;20216;-89
2023/03/02 03:29:07;;;;;;;35.13;8.83;;;11.80;50.00;;;;;;5046301;28;20247;-87
2023/03/02 03:31:34;;;;;;;43.07;9.20;;;11.80;49.90;;;;;;5045090;28;20574;-89
2023/03/02 03:34:01;;;;;;;62.00;10.63;;;11.80;49.90;;;;;;5045550;28;20673;-89
2023/03/02 03:36:29;;;;;;;43.13;8.97;;;11.80;49.90;;;;;;5047061;28;20209;-88
2023/03/02 03:38:57;;;;;;;47.60;9.87;;;11.80;49.90;;;;;;5045625;28;20214;-89
2023/03/02 03:41:24;;;;;;;55.43;10.30;;;11.80;49.90;;;;;;5047133;28;20206;-87
2023/03/02 03:43:52;;;;;;;40.53;9.17;;;11.80;49.90;;;;;;5047202;28;20213;-88
2023/03/02 03:46:20;;;;;;;42.03;9.00;;;11.80;49.90;;;;;;5048289;28;20208;-88
2023/03/02 03:48:47;;;;;;;45.60;9.97;;;11.80;49.90;;;;;;5040589;28;20233;-87
2023/03/02 03:51:14;;;;;;;47.70;9.70;;;11.70;49.80;;;;;;5047685;28;20570;-87
2023/03/02 03:53:41;;;;;;;42.10;9.00;;;11.70;49.80;;;;;;5047447;28;20679;-87
2023/03/02 03:56:08;;;;;;;37.90;8.97;;;11.70;49.80;;;;;;5047955;28;20217;-87
2023/03/02 03:58:35;;;;;;;37.90;8.67;;;11.70;49.80;;;;;;5047962;28;20673;-88
2023/03/02 04:01:05;;;;;;;43.80;9.17;;;11.70;49.80;;;;;;5047551;28;20657;-89
2023/03/02 04:03:33;;;;;;;44.40;9.67;;;11.70;49.80;;;;;;5047606;28;20215;-89
2023/03/02 04:06:00;;;;;;;40.00;9.07;;;11.70;49.80;;;;;;5048117;28;20210;-92
2023/03/02 04:08:27;;;;;;;38.97;8.87;;;11.70;49.80;;;;;;5047478;28;20681;-89
2023/03/02 04:10:54;;;;;;;34.23;8.70;;;11.70;49.80;;;;;;5048281;28;20206;-89
2023/03/02 04:13:21;;;;;;;39.53;8.93;;;11.70;49.80;;;;;;5048296;28;20205;-90
2023/03/02 04:15:48;;;;;;;32.70;8.30;;;11.70;49.80;;;;;;5047644;28;20285;-87
2023/03/02 04:18:14;;;;;;;39.10;8.80;;;11.70;49.90;;;;;;5048099;28;20564;-88
2023/03/02 04:20:43;;;;;;;46.97;9.60;;;11.70;49.80;;;;;;5054647;28;20202;-88
2023/03/02 04:23:10;;;;;;;41.53;8.93;;;11.70;49.80;;;;;;5072023;28;20226;-88
2023/03/02 04:25:37;;;;;;;49.97;10.00;;;11.70;49.80;;;;;;5071461;28;20208;-89
2023/03/02 04:28:04;;;;;;;40.23;9.43;;;11.60;49.70;;;;;;5071670;28;20215;-87
2023/03/02 04:30:32;;;;;;;30.90;8.20;;;11.70;49.80;;;;;;5057082;28;20217;-87
2023/03/02 04:32:58;;;;;;;40.80;9.13;;;11.60;49.80;;;;;;5051648;28;20212;-87
2023/03/02 04:35:25;;;;;;;42.20;9.80;;;11.70;49.90;;;;;;5050678;28;20223;-87
2023/03/02 04:37:54;;;;;;;40.80;9.53;;;11.60;49.70;;;;;;5037265;28;20204;-87
2023/03/02 04:40:20;;;;;;;49.00;9.97;;;11.60;49.80;;;;;;5048288;28;20219;-88
2023/03/02 04:42:47;;;;;;;46.17;10.27;;;11.60;49.80;;;;;;5052104;28;20277;-88
2023/03/02 04:45:14;;;;;;;40.77;9.67;;;11.60;49.80;;;;;;5051657;28;21009;-87
2023/03/02 04:47:42;;;;;;;40.67;9.87;;;11.60;49.80;;;;;;5051719;28;20208;-87
2023/03/02 04:50:11;;;;;;;42.33;10.00;;;11.60;49.70;;;;;;5050031;28;20233;-89
2023/03/02 04:52:37;;;;;;;41.60;10.13;;;11.60;49.70;;;;;;5048880;28;20206;-87
2023/03/02 04:55:07;;;;;;;47.53;10.63;;;11.60;49.70;;;;;;5047418;28;20206;-87
2023/03/02 04:57:34;;;;;;;61.57;11.23;;;11.60;49.80;;;;;;5050798;28;20197;-87
2023/03/02 05:00:00;;;;;;;47.17;11.43;;;11.60;49.80;;;;;;5051581;28;20207;-87
2023/03/02 05:02:27;;;;;;;75.50;13.07;;;11.50;49.70;;;;;;5050101;28;20201;-88
2023/03/02 05:04:54;;;;;;;46.93;10.90;;;11.60;49.70;;;;;;5049950;28;20571;-88
2023/03/02 05:07:21;;;;;;;41.03;10.53;;;11.60;49.80;;;;;;5048015;28;20197;-87
2023/03/02 05:09:48;;;;;;;40.07;11.23;;;11.60;49.70;;;;;;5050855;28;20228;-87
2023/03/02 05:12:18;;;;;;;45.60;11.30;;;11.60;49.70;;;;;;5049551;28;20302;-88
2023/03/02 05:14:44;;;;;;;65.80;12.90;;;11.60;49.70;;;;;;5049545;28;20213;-87
2023/03/02 05:17:11;;;;;;;46.03;12.27;;;11.60;49.70;;;;;;5046858;28;20203;-87
2023/03/02 05:19:38;;;;;;;48.73;12.47;;;11.50;49.70;;;;;;5049299;28;20212;-87
2023/03/02 05:22:05;;;;;;;46.03;12.97;;;11.60;49.70;;;;;;5047787;28;20197;-90
2023/03/02 05:24:32;;;;;;;44.73;12.93;;;11.60;49.70;;;;;;5049894;28;20227;-88
2023/03/02 05:26:59;;;;;;;58.90;14.40;;;11.50;49.70;;;;;;5053014;28;20212;-86
2023/03/02 05:29:27;;;;;;;37.57;13.53;;;11.50;49.70;;;;;;5050106;28;20718;-87
2023/03/02 05:31:54;;;;;;;66.33;15.27;;;11.50;49.60;;;;;;5048608;28;20212;-87
2023/03/02 05:34:21;;;;;;;38.80;13.27;;;11.50;49.60;;;;;;5048744;28;20206;-88
2023/03/02 05:36:48;;;;;;;47.50;14.67;;;11.50;49.70;;;;;;5048257;28;20216;-87
2023/03/02 05:39:19;;;;;;;47.77;14.77;;;11.50;49.70;;;;;;5048679;28;20275;-87
2023/03/02 05:41:46;;;;;;;51.20;14.60;;;11.50;49.70;;;;;;5048325;28;20413;-88
2023/03/02 05:44:13;;;;;;;48.83;15.80;;;11.50;49.70;;;;;;5047505;28;20201;-87
2023/03/02 05:46:41;;;;;;;52.00;15.30;;;11.50;49.60;;;;;;5049407;28;20213;-87
2023/03/02 05:49:09;;;;;;;76.67;16.50;;;11.50;49.60;;;;;;5048867;28;20292;-89
2023/03/02 05:51:36;;;;;;;49.00;15.47;;;11.50;49.70;;;;;;5049160;28;20210;-88
2023/03/02 05:54:03;;;;;;;57.57;16.17;;;11.50;49.80;;;;;;5048302;28;20217;-87
2023/03/02 05:56:30;;;;;;;52.83;16.83;;;11.50;49.60;;;;;;5046435;28;20193;-90
2023/03/02 05:58:57;;;;;;;56.27;17.30;;;11.50;49.70;;;;;;5049764;28;20312;-87
2023/03/02 06:01:24;;;;;;;53.07;16.27;;;11.50;49.70;;;;;;5048165;28;20202;-92
2023/03/02 06:03:52;;;;;;;58.67;16.83;;;11.50;49.70;;;;;;5044620;28;20194;-90
2023/03/02 06:06:19;;;;;;;51.30;16.17;;;11.40;49.60;;;;;;5046405;28;20228;-88
2023/03/02 06:08:45;;;;;;;43.33;15.97;;;11.50;49.80;;;;;;5036791;28;20673;-92
2023/03/02 06:11:13;;;;;;;56.90;17.50;;;11.50;49.70;;;;;;5047920;28;20220;-89
2023/03/02 06:13:40;;;;;;;53.37;17.13;;;11.40;49.60;;;;;;5038782;28;20545;-89
2023/03/02 06:16:07;;;;;;;46.27;16.87;;;11.50;49.70;;;;;;5047567;28;20213;-89
2023/03/02 06:18:37;;;;;;;50.00;16.97;;;11.40;49.60;;;;;;5049685;28;20754;-89
2023/03/02 06:21:05;;;;;;;65.17;17.33;;;11.40;49.60;;;;;;5049668;28;20203;-91
2023/03/02 06:23:32;;;;;;;52.87;17.63;;;11.40;49.70;;;;;;5049998;28;20233;-89
2023/03/02 06:25:59;;;;;;;43.97;16.30;;;11.40;49.70;;;;;;5048225;28;20216;-88
2023/03/02 06:28:26;;;;;;;54.17;17.50;;;11.40;49.70;;;;;;5048907;28;20211;-89
2023/03/02 06:30:53;;;;;;;50.70;17.70;;;11.40;49.70;;;;;;5048579;28;20239;-89
2023/03/02 06:33:22;;;;;;;54.33;17.30;;;11.40;49.60;;;;;;5049710;28;20213;-88
2023/03/02 06:35:49;;;;;;;50.13;17.53;;;11.40;49.60;;;;;;5049528;28;20243;-91
2023/03/02 06:38:18;;;;;;;59.70;18.30;;;11.40;49.70;;;;;;5049396;28;20204;-94
2023/03/02 06:40:45;;;;;;;54.10;17.67;;;11.40;49.70;;;;;;5049053;28;20296;-88
2023/03/02 06:43:12;;;;;;;48.70;17.00;;;11.40;49.60;;;;;;5049099;28;20204;-88
2023/03/02 06:45:39;;;;;;;56.97;18.93;;;11.40;49.70;;;;;;5048653;28;20217;-93
2023/03/02 06:48:07;;;;;;;52.97;17.67;;;11.40;49.70;;;;;;5049497;28;20622;-88
2023/03/02 06:50:34;;;;;;;54.30;18.33;;;11.30;49.50;;;;;;5049089;28;20219;-87
2023/03/02 06:53:01;;;;;;;72.03;20.10;;;11.40;49.60;;;;;;5048133;28;20205;-87
2023/03/02 06:55:29;;;;;;;80.83;20.43;;;11.40;49.60;;;;;;5048379;28;20202;-88
2023/03/02 06:57:56;;;;;;;82.17;19.53;;;11.40;49.60;;;;;;5044434;28;20214;-91
2023/03/02 07:00:26;;;;;;;102.27;21.70;;;11.30;49.50;;;;;;5040061;28;20203;-88
2023/03/02 07:02:54;;;;;;;54.93;18.77;;;11.40;49.60;;;;;;5036784;28;20232;-90
2023/03/02 07:05:23;;;;;;;55.47;19.23;;;11.30;49.50;;;;;;5047023;28;20658;-89
2023/03/02 07:07:50;;;;;;;67.83;19.30;;;11.40;49.60;;;;;;5046458;28;20197;-92
2023/03/02 07:10:17;;;;;;;56.03;18.77;;;11.30;49.60;;;;;;5048332;28;20226;-89
2023/03/02 07:12:45;;;;;;;56.03;18.50;;;11.30;49.50;;;;;;5048788;28;20201;-90
2023/03/02 07:15:13;;;;;;;54.20;18.20;;;11.30;49.50;;;;;;5047763;28;20214;-89
2023/03/02 07:17:42;;;;;;;45.37;17.30;;;11.30;49.60;;;;;;5048868;28;20210;-92
2023/03/02 07:20:10;;;;;;;61.80;19.83;;;11.40;49.70;;;;;;5048803;28;20195;-91
2023/03/02 07:22:38;;;;;;;70.03;18.70;;;11.30;49.60;;;;;;5046722;28;20209;-89
2023/03/02 07:25:05;;;;;;;67.20;19.43;;;11.30;49.60;;;;;;5048601;28;20202;-89
2023/03/02 07:27:32;;;;;;;56.60;18.37;;;11.30;49.70;;;;;;5048460;28;20321;-89
2023/03/02 07:30:01;;;;;;;53.73;18.53;;;11.30;49.70;;;;;;5048800;28;20228;-94
2023/03/02 07:32:28;;;;;;;64.67;18.63;;;11.30;49.70;;;;;;5049230;28;20209;-92
2023/03/02 07:34:55;;;;;;;63.40;18.97;;;11.40;49.70;;;;;;5048601;28;20540;-95
2023/03/02 07:37:25;;;;;;;78.67;20.07;;;11.30;49.70;;;;;;5047448;28;20211;-93
2023/03/02 07:39:52;;;;;;;53.33;17.93;;;11.30;49.70;;;;;;5046693;28;20197;-96
2023/03/02 07:42:19;;;;;;;59.07;19.17;;;11.30;49.90;;;;;;5047198;28;20306;-93
2023/03/02 07:44:46;;;;;;;54.10;17.73;;;11.30;49.70;;;;;;5049904;28;20203;-93
2023/03/02 07:47:15;;;;;;;50.13;18.07;;;11.40;49.80;;;;;;5050498;28;20586;-96
2023/03/02 07:49:42;;;;;;;55.10;17.93;;;11.30;49.70;;;;;;5052741;28;20219;-96
2023/03/02 07:52:09;;;;;;;78.47;20.97;;;11.30;49.70;;;;;;5048423;28;20228;-96
2023/03/02 07:54:35;;;;;;;54.17;18.07;;;11.30;49.80;;;;;;5041461;28;20336;-94
2023/03/02 07:57:02;;;;;;;50.47;18.63;;;11.30;49.80;;;;;;5050625;28;20229;-90
2023/03/02 07:59:29;;;;;;;67.97;19.03;;;11.30;49.90;;;;;;5049487;28;20190;-94
2023/03/02 08:01:57;;;;;;;51.00;18.87;;;11.30;50.40;;;;;;5051907;28;20570;-94
2023/03/02 08:04:26;;;;;;;46.70;17.90;;;11.30;49.90;;;;;;5048251;28;20871;-92
2023/03/02 08:06:53;;;;;;;81.23;19.63;;;11.30;49.90;;;;;;5047131;28;20209;-89
2023/03/02 08:09:20;;;;;;;67.32;22.02;;;11.30;49.80;;;;;;5045967;28;20539;-87
2023/03/02 08:11:47;;;;;;;60.03;20.63;;;11.20;49.90;;;;;;5056309;28;20219;-91
2023/03/02 08:14:14;;;;;;;86.93;23.33;;;11.20;50.00;;;;;;5060030;28;20205;-92
2023/03/02 08:16:41;;;;;;;85.33;22.93;;;11.30;50.00;;;;;;5047222;28;20295;-90
2023/03/02 08:19:08;;;;;;;62.20;20.57;;;11.30;50.00;;;;;;5047954;28;20225;-89
2023/03/02 08:21:36;;;;;;;64.63;20.23;;;11.30;50.00;;;;;;5048076;28;20213;-88
2023/03/02 08:24:04;;;;;;;62.67;20.03;;;11.30;49.90;;;;;;5046629;28;20240;-90
2023/03/02 08:26:31;;;;;;;67.97;21.17;;;11.30;49.90;;;;;;5047292;28;20563;-89
2023/03/02 08:28:58;;;;;;;89.30;22.90;;;11.30;49.90;;;;;;5044459;28;20205;-89
2023/03/02 08:31:28;;;;;;;55.43;20.50;;;11.40;50.00;;;;;;5044937;28;20679;-89
2023/03/02 08:33:58;;;;;;;63.73;19.87;;;11.40;50.00;;;;;;5046946;28;20207;-91
2023/03/02 08:36:28;;;;;;;89.07;22.37;;;11.40;50.00;;;;;;5046452;28;20288;-92
2023/03/02 08:38:57;;;;;;;57.83;19.83;;;11.30;49.90;;;;;;5044755;28;20259;-92
2023/03/02 08:41:24;;;;;;;57.23;19.27;;;11.40;50.00;;;;;;5048867;28;20206;-89
2023/03/02 08:43:53;;;;;;;53.87;19.80;;;11.40;50.00;;;;;;5048492;28;20201;-89
2023/03/02 08:46:21;;;;;;;60.83;19.37;;;11.40;50.00;;;;;;5043082;28;20198;-89
2023/03/02 08:48:50;;;;;;;57.90;19.10;;;11.40;50.00;;;;;;5045027;28;20654;-91
2023/03/02 08:51:19;;;;;;;56.10;19.10;;;11.40;50.10;;;;;;5049569;28;20239;-89
2023/03/02 08:53:49;;;;;;;60.73;19.33;;;11.40;50.10;;;;;;5047693;28;20223;-89
2023/03/02 08:56:25;;;;;;;52.80;17.80;;;11.40;50.10;;;;;;5049530;28;20201;-88
2023/03/02 08:58:54;;;;;;;50.97;17.80;;;11.40;50.20;;;;;;5043405;28;20202;-90
2023/03/02 09:01:22;;;;;;;70.13;18.67;;;11.40;50.10;;;;;;5041155;28;20251;-87
2023/03/02 09:03:50;;;;;;;65.60;19.93;;;11.40;50.20;;;;;;5041262;28;20211;-87
2023/03/02 09:06:17;;;;;;;42.67;16.80;;;11.40;50.20;;;;;;5050174;28;20202;-87
2023/03/02 09:08:44;;;;;;;70.13;18.90;;;11.40;50.20;;;;;;5039755;28;20649;-87
2023/03/02 09:11:11;;;;;;;46.37;17.43;;;11.40;50.20;;;;;;5052743;28;20234;-87
2023/03/02 09:13:40;;;;;;;54.77;17.77;;;11.40;50.20;;;;;;5051114;28;20209;-87
2023/03/02 09:16:08;;;;;;;73.37;20.80;;;11.50;50.20;;;;;;5050569;28;20608;-86
2023/03/02 09:18:35;;;;;;;42.07;17.03;;;11.50;50.20;;;;;;5053636;28;20201;-89
2023/03/02 09:21:02;;;;;;;43.73;16.70;;;11.50;50.20;;;;;;5056674;28;20199;-87
2023/03/02 09:23:30;;;;;;;42.77;16.90;;;11.50;50.20;;;;;;5054067;28;20686;-88
2023/03/02 09:25:57;;;;;;;38.97;18.33;;;11.50;50.20;;;;;;5055373;28;20206;-88
2023/03/02 09:28:25;;;;;;;50.03;18.13;;;11.50;50.20;;;;;;5054401;28;20225;-87
2023/03/02 09:30:55;;;;;;;96.17;20.93;;;11.50;50.20;;;;;;5053715;28;20299;-89
2023/03/02 09:33:22;;;;;;;45.30;17.77;;;11.50;50.20;;;;;;5054213;28;20205;-88
2023/03/02 09:35:49;;;;;;;53.87;17.93;;;11.50;50.20;;;;;;5055008;28;20207;-87
2023/03/02 09:38:17;;;;;;;40.23;17.20;;;11.50;50.30;;;;;;5056624;28;20267;-87
2023/03/02 09:41:10;;;;;;;61.43;18.03;;;11.50;50.20;;;;;;5056448;28;20219;-87
2023/03/02 09:43:45;;;;;;;36.47;15.27;;;11.50;50.30;;;;;;5057283;28;20259;-87
2023/03/02 09:46:20;;;;;;;38.53;17.13;;;11.60;50.40;;;;;;5053577;28;20292;-87
2023/03/02 09:49:07;;;;;;;46.83;17.10;;;11.60;50.40;;;;;;5055444;28;20234;-88
2023/03/02 09:51:39;;;;;;;45.70;17.57;;;11.60;50.40;;;;;;5055422;28;20238;-86
2023/03/02 09:54:10;;;;;;;42.73;15.20;;;11.60;50.40;;;;;;5053128;28;20212;-85
2023/03/02 09:56:44;;;;;;;43.30;16.67;;;11.60;50.40;;;;;;5048629;28;20220;-90
2023/03/02 09:59:21;;;;;;;68.82;20.73;;;11.60;50.50;;;;;;5052088;28;20448;-91
2023/03/02 10:01:54;;;;;;;65.70;19.10;;;11.60;50.70;;;;;;5055111;28;20201;-93
2023/03/02 10:04:26;;;;;;;54.10;16.70;;;11.60;50.70;;;;;;5046831;28;20315;-91
2023/03/02 10:06:57;;;;;;;80.10;18.43;;;11.60;50.70;;;;;;5037389;28;20205;-89
2023/03/02 10:09:30;;;;;;;53.20;17.23;;;11.70;50.70;;;;;;5050587;28;20291;-89
2023/03/02 10:12:18;;;;;;;50.50;17.13;;;11.70;50.70;;;;;;5050354;28;20230;-90
2023/03/02 10:14:51;;;;;;;62.07;17.50;;;11.70;50.70;;;;;;5049462;28;20221;-89
2023/03/02 10:17:43;;;;;;;55.93;16.13;;;11.80;50.70;;;;;;5038070;28;20213;-89
2023/03/02 10:20:16;;;;;;;51.53;16.43;;;11.80;50.70;;;;;;5037315;28;20207;-89
2023/03/02 10:22:48;;;;;;;58.63;17.50;;;11.80;50.70;;;;;;5052401;28;20957;-94
2023/03/02 10:25:31;;;;;;;43.83;15.67;;;11.80;50.70;;;;;;5032046;28;20745;-91
2023/03/02 10:28:01;;;;;;;34.50;16.10;;;11.80;50.60;;;;;;5040188;28;20215;-93
2023/03/02 10:30:31;;;;;;;58.40;16.07;;;11.90;50.70;;;;;;5047071;28;20217;-92
2023/03/02 10:33:09;;;;;;;44.33;15.27;;;11.80;50.70;;;;;;5043033;28;20210;-93
2023/03/02 10:35:41;;;;;;;55.93;16.07;;;11.90;50.80;;;;;;5053878;28;20245;-93
2023/03/02 10:38:14;;;;;;;55.80;16.47;;;11.90;50.80;;;;;;5042369;28;20206;-96
2023/03/02 10:40:47;;;;;;;67.83;16.73;;;11.90;50.80;;;;;;5050851;28;20278;-96
2023/03/02 10:43:17;;;;;;;44.93;15.50;;;12.00;50.90;;;;;;5050558;28;20911;-96
2023/03/02 10:45:45;;;;;;;71.43;17.87;;;12.00;50.90;;;;;;5047299;28;20314;-94
2023/03/02 10:48:16;;;;;;;58.10;16.63;;;12.00;50.90;;;;;;5050325;28;20205;-95
2023/03/02 10:50:44;;;;;;;51.77;15.27;;;12.00;50.90;;;;;;5049869;28;20697;-96
2023/03/02 10:53:18;;;;;;;57.50;16.87;;;12.00;50.80;;;;;;5048139;28;20205;-95
2023/03/02 10:55:48;;;;;;;48.20;14.70;;;12.00;50.90;;;;;;5050000;28;20296;-93
2023/03/02 10:58:29;;;;;;;37.03;14.37;;;12.10;51.00;;;;;;5049845;28;20218;-93
2023/03/02 11:01:00;;;;;;;44.10;14.77;;;12.10;51.00;;;;;;5048394;28;20681;-91
2023/03/02 11:03:31;;;;;;;47.50;15.63;;;12.10;51.00;;;;;;5049367;28;20217;-94
2023/03/02 11:06:10;;;;;;;48.40;15.73;;;12.20;51.00;;;;;;5049936;28;20222;-94
2023/03/02 11:08:37;;;;;;;69.00;16.83;;;12.20;51.00;;;;;;5047398;28;20200;-94
2023/03/02 11:11:05;;;;;;;43.70;15.20;;;12.20;51.00;;;;;;5045190;28;20231;-94
2023/03/02 11:13:35;;;;;;;44.83;15.40;;;12.20;51.00;;;;;;5049426;28;20206;-96
2023/03/02 11:16:25;;;;;;;51.73;16.37;;;12.20;51.00;;;;;;5050285;28;20199;-95
2023/03/02 11:18:57;;;;;;;54.23;15.37;;;12.30;51.10;;;;;;5048931;28;20300;-94
2023/03/02 11:21:30;;;;;;;57.17;16.00;;;12.30;51.10;;;;;;5045025;28;20221;-95
2023/03/02 11:24:05;;;;;;;57.63;16.17;;;12.40;51.20;;;;;;5050242;28;20750;-95
2023/03/02 11:26:47;;;;;;;53.70;14.63;;;12.30;51.10;;;;;;5052856;28;20986;-91
2023/03/02 11:29:25;;;;;;;45.57;14.23;;;12.40;51.10;;;;;;5091992;22;20233;-89
2023/03/02 11:31:56;;;;;;;48.70;15.77;;;12.40;51.20;;;;;;5045371;28;20222;-91
2023/03/02 11:34:47;;;;;;;60.30;15.90;;;12.40;51.20;;;;;;5052011;28;20203;-91
2023/03/02 11:37:21;;;;;;;40.47;14.53;;;12.40;51.30;;;;;;5034839;28;20617;-91
2023/03/02 11:40:13;;;;;;;63.40;16.57;;;12.50;51.30;;;;;;5031279;28;20308;-93
2023/03/02 11:42:44;;;;;;;51.00;15.03;;;12.50;51.30;;;;;;5046378;28;20262;-93
2023/03/02 11:45:19;;;;;;;40.90;14.00;;;12.50;51.30;;;;;;5048703;28;20210;-91
2023/03/02 11:47:51;;;;;;;59.13;16.07;;;12.50;51.30;;;;;;5044880;28;20206;-91
2023/03/02 11:50:20;;;;;;;42.60;14.13;;;12.60;51.40;;;;;;5048851;28;20632;-91
2023/03/02 11:52:52;;;;;;;48.77;14.87;;;12.60;51.40;;;;;;5043823;28;20285;-90
2023/03/02 11:55:22;;;;;;;39.10;14.23;;;12.60;51.40;;;;;;5046766;28;20217;-91
2023/03/02 11:57:52;;;;;;;60.70;15.57;;;12.60;51.40;;;;;;5048688;28;20306;-91
2023/03/02 12:00:30;;;;;;;41.47;14.60;;;12.70;51.40;;;;;;5045792;28;20198;-91
2023/03/02 12:03:06;;;;;;;33.07;13.37;;;12.70;51.50;;;;;;5048296;28;20250;-90
2023/03/02 12:05:36;;;;;;;45.97;14.87;;;12.70;51.40;;;;;;5038775;28;20566;-92
2023/03/02 12:08:06;;;;;;;66.27;15.67;;;12.70;51.40;;;;;;5047397;28;20205;-92
2023/03/02 12:10:36;;;;;;;51.70;15.70;;;12.80;51.40;;;;;;5047277;28;20210;-92
2023/03/02 12:13:14;;;;;;;48.43;15.30;;;12.80;51.40;;;;;;5048062;28;20221;-91
2023/03/02 12:15:43;;;;;;;42.10;13.63;;;12.80;51.40;;;;;;5048946;28;20564;-91
2023/03/02 12:18:54;;;;;;;69.60;15.73;;;12.80;51.40;;;;;;5048269;28;20289;-90
2023/03/02 12:21:25;;;;;;;40.00;14.33;;;12.90;51.60;;;;;;4986442;28;20265;-90
2023/03/02 12:24:02;;;;;;;44.77;14.43;;;12.90;52.00;;;;;;5040611;28;20196;-91
2023/03/02 12:26:48;;;;;;;48.07;13.50;;;12.90;51.50;;;;;;5047952;28;20280;-90
2023/03/02 12:29:42;;;;;;;54.93;15.87;;;12.90;51.50;;;;;;5047558;28;20217;-91
2023/03/02 12:32:21;;;;;;;50.03;15.80;;;13.00;51.60;;;;;;5045391;28;20226;-91
2023/03/02 12:34:54;;;;;;;43.20;14.87;;;13.00;51.50;;;;;;5048053;28;20963;-93
2023/03/02 12:37:26;;;;;;;52.17;14.70;;;13.00;51.50;;;;;;5047971;28;20207;-91
2023/03/02 12:40:28;;;;;;;47.87;14.70;;;13.00;51.50;;;;;;5048119;28;20210;-91
2023/03/02 12:43:37;;;;;;;49.43;13.97;;;13.10;51.70;;;;;;5036049;28;20217;-91